createdAt,value
2019-02-08T00:00:41.757Z,2.22
2019-02-08T00:03:14.233Z,2.18
2019-02-08T00:05:46.794Z,2.17
2019-02-08T00:08:19.208Z,2.16
2019-02-08T00:10:51.498Z,2.14
2019-02-08T00:13:24.192Z,2.14
2019-02-08T00:15:56.989Z,2.12
2019-02-08T00:18:32.292Z,2.11
2019-02-08T00:21:05.374Z,2.11
2019-02-08T00:23:37.677Z,2.10
2019-02-08T00:26:10.425Z,2.12
2019-02-08T00:28:42.832Z,2.10
2019-02-08T00:31:15.167Z,2.09
2019-02-08T00:33:48.019Z,2.10
2019-02-08T00:36:20.354Z,2.09
2019-02-08T00:38:52.874Z,2.08
2019-02-08T00:41:25.271Z,2.12
2019-02-08T00:43:57.521Z,2.12
2019-02-08T00:46:30.059Z,2.11
2019-02-08T00:49:02.415Z,2.11
2019-02-08T00:51:34.680Z,2.10
2019-02-08T00:54:07.265Z,2.08
2019-02-08T00:56:39.533Z,2.05
2019-02-08T00:59:12.213Z,2.04
2019-02-08T01:01:44.491Z,2.02
2019-02-08T01:04:17.879Z,2.05
2019-02-08T01:06:50.122Z,2.06
2019-02-08T01:09:22.414Z,2.07
2019-02-08T01:11:54.934Z,2.08
2019-02-08T01:14:27.387Z,2.08
2019-02-08T01:16:59.753Z,2.06
2019-02-08T01:19:32.083Z,2.05
2019-02-08T01:22:05.589Z,2.02
2019-02-08T01:24:42.520Z,2.03
2019-02-08T01:27:14.792Z,2.04
2019-02-08T01:29:48.175Z,2.06
2019-02-08T01:32:20.609Z,2.05
2019-02-08T01:34:52.933Z,2.06
2019-02-08T01:37:25.172Z,2.10
2019-02-08T01:39:57.411Z,2.10
2019-02-08T01:42:29.796Z,2.12
2019-02-08T01:45:02.818Z,2.11
2019-02-08T01:47:36.651Z,2.12
2019-02-08T01:50:12.890Z,2.15
2019-02-08T01:52:45.234Z,2.19
2019-02-08T01:55:18.098Z,2.22
2019-02-08T01:57:52.059Z,2.21
2019-02-08T02:00:26.817Z,2.21
2019-02-08T02:02:59.269Z,2.20
2019-02-08T02:05:31.903Z,2.18
2019-02-08T02:08:04.787Z,2.19
2019-02-08T02:10:40.587Z,2.19
2019-02-08T02:13:13.947Z,2.16
2019-02-08T02:15:47.198Z,2.16
2019-02-08T02:18:19.519Z,2.14
2019-02-08T02:20:53.360Z,2.13
2019-02-08T02:23:25.745Z,2.13
2019-02-08T02:25:58.172Z,2.16
2019-02-08T02:28:30.616Z,2.17
2019-02-08T02:31:02.962Z,2.20
2019-02-08T02:33:35.449Z,2.21
2019-02-08T02:36:07.861Z,2.21
2019-02-08T02:38:40.162Z,2.23
2019-02-08T02:41:12.529Z,2.21
2019-02-08T02:43:44.785Z,2.23
2019-02-08T02:46:17.089Z,2.24
2019-02-08T02:48:49.433Z,2.22
2019-02-08T02:51:21.695Z,2.24
2019-02-08T02:53:53.979Z,2.25
2019-02-08T02:56:27.335Z,2.24
2019-02-08T02:58:59.659Z,2.26
2019-02-08T03:01:31.903Z,2.25
2019-02-08T03:04:04.717Z,2.30
2019-02-08T03:06:37.746Z,2.30
2019-02-08T03:09:10.602Z,2.31
2019-02-08T03:11:42.953Z,2.30
2019-02-08T03:14:15.320Z,2.31
2019-02-08T03:16:47.582Z,2.31
2019-02-08T03:19:19.840Z,2.29
2019-02-08T03:21:52.193Z,2.31
2019-02-08T03:24:24.453Z,2.32
2019-02-08T03:26:56.837Z,2.30
2019-02-08T03:29:29.177Z,2.30
2019-02-08T03:32:01.416Z,2.32
2019-02-08T03:34:33.715Z,2.31
2019-02-08T03:37:05.987Z,2.28
2019-02-08T03:39:39.392Z,2.26
2019-02-08T03:42:11.624Z,2.26
2019-02-08T03:44:43.963Z,2.24
2019-02-08T03:47:16.223Z,2.25
2019-02-08T03:49:48.544Z,2.22
2019-02-08T03:52:20.894Z,2.20
2019-02-08T03:54:53.150Z,2.20
2019-02-08T03:57:25.379Z,2.17
2019-02-08T03:59:57.726Z,2.19
2019-02-08T04:02:30.100Z,2.20
2019-02-08T04:05:02.544Z,2.19
2019-02-08T04:07:34.864Z,2.18
2019-02-08T04:10:08.845Z,2.15
2019-02-08T04:12:41.236Z,2.16
2019-02-08T04:15:16.685Z,2.12
2019-02-08T04:17:49.250Z,2.11
2019-02-08T04:20:25.207Z,2.10
2019-02-08T04:22:58.537Z,2.15
2019-02-08T04:25:30.897Z,2.11
2019-02-08T04:28:03.158Z,2.10
2019-02-08T04:30:35.785Z,2.09
2019-02-08T04:33:08.138Z,2.07
2019-02-08T04:35:40.413Z,2.07
2019-02-08T04:38:12.688Z,2.06
2019-02-08T04:40:44.984Z,2.06
2019-02-08T04:43:17.330Z,2.07
2019-02-08T04:45:49.595Z,2.05
2019-02-08T04:48:21.942Z,2.03
2019-02-08T04:50:54.376Z,2.02
2019-02-08T04:53:26.655Z,2.03
2019-02-08T04:55:59.095Z,2.06
2019-02-08T04:58:35.584Z,2.03
2019-02-08T05:01:05.967Z,2.06
2019-02-08T05:03:38.349Z,2.03
2019-02-08T05:06:10.665Z,2.05
2019-02-08T05:08:43.082Z,2.04
2019-02-08T05:11:15.475Z,2.01
2019-02-08T05:13:47.852Z,2.03
2019-02-08T05:16:20.314Z,2.05
2019-02-08T05:18:52.630Z,2.08
2019-02-08T05:21:24.979Z,2.08
2019-02-08T05:23:58.409Z,2.03
2019-02-08T05:26:30.765Z,2.02
2019-02-08T05:29:03.011Z,2.00
2019-02-08T05:31:35.336Z,1.96
2019-02-08T05:34:07.749Z,1.91
2019-02-08T05:36:40.070Z,1.89
2019-02-08T05:39:12.401Z,1.87
2019-02-08T05:41:44.702Z,1.84
2019-02-08T05:44:17.091Z,1.87
2019-02-08T05:46:49.412Z,1.81
2019-02-08T05:49:21.696Z,1.80
2019-02-08T05:51:54.346Z,1.82
2019-02-08T05:54:26.747Z,1.83
2019-02-08T05:56:59.040Z,1.83
2019-02-08T05:59:31.330Z,1.86
2019-02-08T06:02:03.668Z,1.89
2019-02-08T06:04:36.074Z,1.90
2019-02-08T06:07:08.387Z,1.90
2019-02-08T06:09:40.719Z,1.87
2019-02-08T06:12:13.001Z,1.87
2019-02-08T06:14:45.394Z,1.83
2019-02-08T06:17:17.818Z,1.81
2019-02-08T06:19:50.102Z,1.80
2019-02-08T06:22:22.472Z,1.77
2019-02-08T06:25:03.301Z,1.76
2019-02-08T06:27:37.642Z,1.75
2019-02-08T06:30:14.940Z,1.76
2019-02-08T06:32:48.794Z,1.76
2019-02-08T06:35:23.376Z,1.80
2019-02-08T06:37:56.518Z,1.86
2019-02-08T06:40:30.833Z,1.84
2019-02-08T06:43:04.940Z,1.86
2019-02-08T06:45:37.534Z,1.87
2019-02-08T06:48:10.918Z,1.86
2019-02-08T06:50:43.286Z,1.83
2019-02-08T06:53:15.617Z,1.86
2019-02-08T06:55:53.848Z,1.88
2019-02-08T06:58:45.946Z,1.89
2019-02-08T07:01:35.820Z,1.93
2019-02-08T07:04:21.928Z,1.97
2019-02-08T07:07:05.736Z,2.01
2019-02-08T07:09:57.324Z,2.10
2019-02-08T07:12:51.698Z,2.15
2019-02-08T07:15:41.590Z,2.17
2019-02-08T07:18:19.658Z,2.21
2019-02-08T07:21:06.192Z,2.27
2019-02-08T07:23:53.687Z,2.32
2019-02-08T07:26:54.237Z,2.36
2019-02-08T07:29:35.798Z,2.39
2019-02-08T07:32:33.915Z,2.43
2019-02-08T07:35:16.184Z,2.51
2019-02-08T07:38:13.835Z,2.53
2019-02-08T07:41:05.554Z,2.59
2019-02-08T07:43:56.927Z,2.63
2019-02-08T07:47:06.725Z,2.70
2019-02-08T07:50:05.981Z,2.79
2019-02-08T07:52:52.021Z,2.87
2019-02-08T07:55:40.261Z,2.95
2019-02-08T07:58:32.188Z,3.01
2019-02-08T08:01:33.460Z,3.10
2019-02-08T08:04:26.921Z,3.16
2019-02-08T08:07:17.182Z,3.19
2019-02-08T08:10:08.941Z,3.27
2019-02-08T08:13:14.453Z,3.35
2019-02-08T08:16:05.080Z,3.49
2019-02-08T08:18:56.758Z,3.61
2019-02-08T08:21:47.108Z,3.69
2019-02-08T08:24:35.184Z,3.76
2019-02-08T08:27:16.403Z,3.91
2019-02-08T08:30:15.879Z,4.10
2019-02-08T08:33:17.473Z,4.23
2019-02-08T08:36:16.538Z,4.43
2019-02-08T08:39:45.085Z,4.66
2019-02-08T08:43:03.420Z,4.88
2019-02-08T08:46:21.166Z,5.22
2019-02-08T08:49:40.896Z,5.73
2019-02-08T08:52:47.513Z,6.45
2019-02-08T08:56:06.913Z,7.14
2019-02-08T08:59:06.525Z,7.57
2019-02-08T09:02:28.748Z,7.93
2019-02-08T09:05:40.546Z,8.48
2019-02-08T09:09:00.008Z,8.60
2019-02-08T09:11:55.540Z,9.22
2019-02-08T09:14:57.664Z,9.43
2019-02-08T09:18:26.031Z,9.67
2019-02-08T09:21:44.817Z,10.02
2019-02-08T09:24:54.647Z,10.07
2019-02-08T09:28:04.375Z,10.22
2019-02-08T09:31:26.782Z,10.46
2019-02-08T09:34:33.428Z,10.63
2019-02-08T09:37:48.646Z,10.63
2019-02-08T09:41:16.237Z,11.01
2019-02-08T09:44:24.178Z,11.16
2019-02-08T09:47:49.901Z,11.30
2019-02-08T09:50:55.383Z,11.73
2019-02-08T09:54:07.379Z,12.26
2019-02-08T09:57:20.339Z,12.07
2019-02-08T10:00:32.162Z,12.18
2019-02-08T10:03:50.519Z,12.68
2019-02-08T10:06:52.465Z,12.73
2019-02-08T10:09:56.459Z,12.57
2019-02-08T10:12:58.693Z,12.76
2019-02-08T10:16:02.107Z,13.39
2019-02-08T10:19:13.520Z,13.53
2019-02-08T10:22:47.829Z,13.39
2019-02-08T10:26:13.109Z,13.42
2019-02-08T10:29:33.237Z,13.28
2019-02-08T10:32:36.909Z,13.47
2019-02-08T10:35:56.085Z,13.77
2019-02-08T10:39:07.189Z,13.62
2019-02-08T10:42:15.096Z,13.20
2019-02-08T10:45:45.960Z,13.35
2019-02-08T10:48:58.400Z,13.33
2019-02-08T10:52:13.159Z,13.25
2019-02-08T10:55:24.052Z,13.62
2019-02-08T10:58:32.453Z,13.54
2019-02-08T11:01:47.861Z,13.62
2019-02-08T11:05:16.201Z,13.68
2019-02-08T11:08:35.480Z,13.83
2019-02-08T11:12:00.462Z,13.83
2019-02-08T11:15:18.647Z,13.72
2019-02-08T11:18:34.243Z,13.80
2019-02-08T11:21:07.357Z,13.40
2019-02-08T11:23:39.678Z,13.18
2019-02-08T11:26:12.060Z,13.22
2019-02-08T11:28:44.388Z,13.03
2019-02-08T11:31:16.719Z,13.18
2019-02-08T11:33:49.016Z,13.56
2019-02-08T11:36:21.600Z,13.78
2019-02-08T11:38:53.993Z,13.74
2019-02-08T11:41:26.389Z,13.66
2019-02-08T11:43:58.705Z,13.66
2019-02-08T11:46:30.981Z,13.31
2019-02-08T11:49:03.260Z,13.30
2019-02-08T11:51:36.446Z,13.28
2019-02-08T11:54:19.464Z,13.38
2019-02-08T11:57:02.269Z,13.15
2019-02-08T11:59:34.693Z,13.14
2019-02-08T12:02:07.890Z,13.12
2019-02-08T12:04:40.486Z,12.83
2019-02-08T12:07:12.762Z,12.36
2019-02-08T12:09:46.082Z,12.63
2019-02-08T12:12:18.336Z,12.72
2019-02-08T12:14:50.613Z,13.08
2019-02-08T12:17:22.892Z,13.10
2019-02-08T12:19:55.175Z,12.81
2019-02-08T12:22:27.499Z,12.50
2019-02-08T12:25:00.215Z,12.29
2019-02-08T12:27:32.608Z,12.26
2019-02-08T12:30:08.161Z,12.30
2019-02-08T12:32:40.518Z,12.21
2019-02-08T12:35:12.782Z,12.17
2019-02-08T12:37:45.141Z,12.21
2019-02-08T12:40:17.410Z,12.12
2019-02-08T12:42:49.778Z,12.17
2019-02-08T12:45:22.254Z,12.17
2019-02-08T12:47:54.627Z,12.38
2019-02-08T12:50:27.210Z,12.25
2019-02-08T12:52:59.544Z,12.27
2019-02-08T12:55:32.022Z,12.23
2019-02-08T12:58:04.282Z,12.14
2019-02-08T13:00:36.786Z,12.15
2019-02-08T13:03:09.081Z,12.08
2019-02-08T13:05:41.698Z,11.76
2019-02-08T13:08:13.943Z,11.62
2019-02-08T13:10:46.191Z,11.81
2019-02-08T13:13:18.479Z,11.69
2019-02-08T13:15:50.782Z,11.88
2019-02-08T13:18:23.042Z,11.55
2019-02-08T13:20:55.269Z,11.45
2019-02-08T13:23:27.604Z,11.40
2019-02-08T13:25:59.832Z,11.38
2019-02-08T13:28:32.658Z,11.25
2019-02-08T13:31:04.989Z,11.23
2019-02-08T13:33:37.344Z,11.07
2019-02-08T13:36:15.140Z,11.10
2019-02-08T13:38:47.404Z,11.10
2019-02-08T13:41:19.741Z,11.13
2019-02-08T13:43:52.073Z,11.18
2019-02-08T13:46:24.366Z,11.15
2019-02-08T13:48:56.686Z,11.11
2019-02-08T13:51:29.114Z,11.23
2019-02-08T13:54:01.366Z,11.13
2019-02-08T13:56:33.750Z,11.29
2019-02-08T13:59:06.172Z,11.06
2019-02-08T14:01:38.509Z,11.13
2019-02-08T14:04:11.780Z,11.20
2019-02-08T14:06:44.195Z,11.31
2019-02-08T14:09:16.470Z,11.38
2019-02-08T14:11:48.748Z,11.50
2019-02-08T14:14:21.049Z,11.39
2019-02-08T14:16:53.353Z,11.10
2019-02-08T14:19:25.694Z,10.65
2019-02-08T14:21:57.990Z,10.44
2019-02-08T14:24:30.472Z,10.26
2019-02-08T14:27:08.431Z,10.28
2019-02-08T14:29:36.843Z,10.44
2019-02-08T14:32:09.220Z,10.26
2019-02-08T14:34:43.728Z,10.27
2019-02-08T14:37:16.053Z,10.21
2019-02-08T14:39:48.592Z,10.12
2019-02-08T14:42:21.058Z,10.12
2019-02-08T14:44:53.461Z,9.96
2019-02-08T14:47:26.048Z,9.72
2019-02-08T14:49:58.491Z,9.66
2019-02-08T14:52:30.854Z,9.53
2019-02-08T14:55:04.797Z,9.20
2019-02-08T14:57:37.548Z,9.10
2019-02-08T15:00:13.159Z,8.92
2019-02-08T15:02:45.763Z,8.85
2019-02-08T15:05:19.035Z,8.73
2019-02-08T15:07:51.711Z,8.62
2019-02-08T15:10:29.590Z,8.50
2019-02-08T15:13:02.968Z,8.40
2019-02-08T15:15:35.390Z,8.29
2019-02-08T15:18:08.346Z,8.24
2019-02-08T15:20:40.704Z,8.19
2019-02-08T15:23:13.080Z,8.13
2019-02-08T15:25:45.521Z,8.08
2019-02-08T15:28:17.803Z,8.04
2019-02-08T15:30:50.365Z,7.92
2019-02-08T15:33:22.740Z,7.87
2019-02-08T15:35:56.917Z,7.84
2019-02-08T15:38:30.083Z,7.73
2019-02-08T15:41:02.578Z,7.67
2019-02-08T15:43:35.033Z,7.56
2019-02-08T15:46:07.877Z,7.45
2019-02-08T15:48:40.297Z,7.40
2019-02-08T15:51:12.641Z,7.32
2019-02-08T15:53:44.894Z,7.23
2019-02-08T15:56:17.941Z,7.12
2019-02-08T15:58:50.590Z,7.10
2019-02-08T16:01:23.287Z,7.01
2019-02-08T16:03:55.781Z,6.96
2019-02-08T16:06:28.135Z,6.89
2019-02-08T16:09:00.554Z,6.82
2019-02-08T16:11:34.415Z,6.74
2019-02-08T16:14:07.009Z,6.69
2019-02-08T16:16:39.379Z,6.63
2019-02-08T16:19:11.789Z,6.59
2019-02-08T16:21:44.229Z,6.53
2019-02-08T16:24:16.606Z,6.50
2019-02-08T16:26:49.146Z,6.44
2019-02-08T16:29:21.488Z,6.42
2019-02-08T16:31:54.118Z,6.35
2019-02-08T16:34:28.026Z,6.32
2019-02-08T16:37:03.629Z,6.28
2019-02-08T16:39:36.187Z,6.24
2019-02-08T16:42:08.652Z,6.22
2019-02-08T16:44:41.089Z,6.20
2019-02-08T16:47:13.950Z,6.18
2019-02-08T16:49:46.706Z,6.12
2019-02-08T16:52:19.018Z,6.09
2019-02-08T16:54:51.475Z,6.06
2019-02-08T16:57:23.802Z,5.97
2019-02-08T16:59:58.251Z,5.94
2019-02-08T17:02:32.544Z,5.91
2019-02-08T17:05:05.620Z,5.89
2019-02-08T17:07:37.982Z,5.84
2019-02-08T17:10:12.651Z,5.70
2019-02-08T17:12:45.040Z,5.73
2019-02-08T17:15:19.837Z,5.70
2019-02-08T17:17:54.840Z,5.68
2019-02-08T17:20:33.568Z,5.68
2019-02-08T17:23:08.971Z,5.58
2019-02-08T17:25:41.238Z,5.52
2019-02-08T17:28:13.700Z,5.38
2019-02-08T17:30:46.289Z,5.38
2019-02-08T17:33:18.729Z,5.33
2019-02-08T17:35:51.080Z,5.33
2019-02-08T17:38:24.152Z,5.26
2019-02-08T17:40:56.729Z,5.23
2019-02-08T17:43:29.248Z,5.18
2019-02-08T17:46:02.517Z,5.16
2019-02-08T17:48:34.947Z,5.10
2019-02-08T17:51:07.467Z,5.03
2019-02-08T17:53:39.956Z,4.96
2019-02-08T17:56:12.345Z,4.88
2019-02-08T17:58:48.119Z,4.84
2019-02-08T18:01:20.742Z,4.81
2019-02-08T18:03:53.140Z,4.77
2019-02-08T18:06:25.531Z,4.72
2019-02-08T18:08:58.121Z,4.72
2019-02-08T18:11:30.701Z,4.68
2019-02-08T18:14:03.121Z,4.69
2019-02-08T18:16:35.890Z,4.75
2019-02-08T18:19:08.820Z,4.75
2019-02-08T18:21:41.274Z,4.67
2019-02-08T18:24:14.644Z,4.62
2019-02-08T18:26:55.316Z,4.57
2019-02-08T18:29:28.029Z,4.53
2019-02-08T18:32:00.817Z,4.49
2019-02-08T18:34:33.465Z,4.47
2019-02-08T18:37:06.133Z,4.43
2019-02-08T18:39:39.969Z,4.45
2019-02-08T18:42:12.474Z,4.48
2019-02-08T18:44:44.843Z,4.48
2019-02-08T18:47:17.187Z,4.47
2019-02-08T18:49:49.766Z,4.41
2019-02-08T18:52:22.110Z,4.41
2019-02-08T18:54:54.408Z,4.35
2019-02-08T18:57:26.931Z,4.34
2019-02-08T18:59:59.259Z,4.35
2019-02-08T19:02:31.837Z,4.34
2019-02-08T19:05:05.173Z,4.23
2019-02-08T19:07:37.488Z,4.23
2019-02-08T19:10:12.508Z,4.22
2019-02-08T19:12:45.329Z,4.17
2019-02-08T19:15:18.756Z,4.14
2019-02-08T19:17:52.302Z,4.08
2019-02-08T19:20:25.023Z,4.06
2019-02-08T19:22:57.461Z,4.01
2019-02-08T19:25:34.926Z,3.92
2019-02-08T19:28:08.411Z,3.87
2019-02-08T19:30:40.854Z,3.87
2019-02-08T19:33:13.229Z,3.89
2019-02-08T19:35:45.614Z,3.87
2019-02-08T19:38:17.952Z,3.86
2019-02-08T19:40:50.317Z,3.85
2019-02-08T19:43:22.684Z,3.80
2019-02-08T19:45:55.293Z,3.78
2019-02-08T19:48:27.553Z,3.77
2019-02-08T19:50:59.941Z,3.79
2019-02-08T19:53:32.332Z,3.78
2019-02-08T19:56:05.112Z,3.75
2019-02-08T19:58:37.651Z,3.75
2019-02-08T20:01:09.951Z,3.77
2019-02-08T20:03:42.345Z,3.79
2019-02-08T20:06:14.767Z,3.86
2019-02-08T20:08:47.659Z,3.86
2019-02-08T20:11:20.026Z,3.87
2019-02-08T20:13:52.289Z,3.82
2019-02-08T20:16:24.594Z,3.80
2019-02-08T20:18:57.042Z,3.75
2019-02-08T20:21:29.467Z,3.68
2019-02-08T20:24:01.769Z,3.66
2019-02-08T20:26:34.092Z,3.60
2019-02-08T20:29:06.403Z,3.60
2019-02-08T20:31:38.683Z,3.60
2019-02-08T20:34:26.595Z,3.56
2019-02-08T20:36:58.973Z,3.52
2019-02-08T20:39:31.371Z,3.44
2019-02-08T20:42:03.785Z,3.32
2019-02-08T20:44:36.206Z,3.31
2019-02-08T20:47:08.518Z,3.35
2019-02-08T20:49:42.330Z,3.39
2019-02-08T20:52:14.647Z,3.34
2019-02-08T20:54:47.120Z,3.35
2019-02-08T20:57:19.351Z,3.39
2019-02-08T20:59:51.749Z,3.38
2019-02-08T21:02:24.300Z,3.33
2019-02-08T21:04:56.642Z,3.32
2019-02-08T21:07:29.026Z,3.28
2019-02-08T21:10:01.991Z,3.31
2019-02-08T21:12:35.661Z,3.29
2019-02-08T21:15:08.207Z,3.23
2019-02-08T21:17:40.528Z,3.31
2019-02-08T21:20:13.319Z,3.36
2019-02-08T21:22:45.796Z,3.42
2019-02-08T21:25:21.640Z,3.30
2019-02-08T21:27:54.068Z,3.19
2019-02-08T21:30:26.558Z,3.17
2019-02-08T21:32:59.033Z,3.18
2019-02-08T21:35:31.370Z,3.24
2019-02-08T21:38:03.794Z,3.27
2019-02-08T21:40:36.518Z,3.25
2019-02-08T21:43:09.529Z,3.29
2019-02-08T21:48:49.763Z,3.26
2019-02-08T21:51:22.112Z,3.23
2019-02-08T21:53:54.451Z,3.22
2019-02-08T21:56:26.926Z,3.15
2019-02-08T21:59:05.947Z,3.16
2019-02-08T22:01:33.533Z,3.19
2019-02-08T22:04:06.036Z,3.20
2019-02-08T22:06:38.479Z,3.19
2019-02-08T22:09:10.898Z,3.20
2019-02-08T22:11:43.981Z,3.22
2019-02-08T22:14:16.363Z,3.23
2019-02-08T22:16:48.694Z,3.21
2019-02-08T22:19:21.018Z,3.19
2019-02-08T22:21:53.336Z,3.14
2019-02-08T22:24:25.605Z,3.14
2019-02-08T22:26:58.014Z,3.18
2019-02-08T22:29:32.901Z,3.16
2019-02-08T22:32:05.365Z,3.19
2019-02-08T22:34:37.743Z,3.21
2019-02-08T22:37:09.993Z,3.24
2019-02-08T22:39:42.370Z,3.23
2019-02-08T22:42:15.255Z,3.25
2019-02-08T22:44:49.092Z,3.27
2019-02-08T22:47:21.415Z,3.31
2019-02-08T22:49:53.766Z,3.37
2019-02-08T22:52:26.135Z,3.37
2019-02-08T22:54:58.479Z,3.35
2019-02-08T22:57:30.708Z,3.37
2019-02-08T23:00:03.021Z,3.32
2019-02-08T23:02:37.228Z,3.34
2019-02-08T23:05:09.622Z,3.36
2019-02-08T23:07:42.018Z,3.40
2019-02-08T23:10:14.407Z,3.40
2019-02-08T23:12:46.710Z,3.48
2019-02-08T23:15:19.081Z,3.47
2019-02-08T23:17:51.481Z,3.49
2019-02-08T23:20:23.857Z,3.46
2019-02-08T23:22:56.280Z,3.44
2019-02-08T23:25:28.755Z,3.35
2019-02-08T23:28:01.197Z,3.37
2019-02-08T23:30:33.636Z,3.37
2019-02-08T23:33:06.120Z,3.35
2019-02-08T23:35:43.047Z,3.32
2019-02-08T23:38:12.535Z,3.33
2019-02-08T23:40:44.904Z,3.38
2019-02-08T23:43:19.589Z,3.38
2019-02-08T23:45:51.919Z,3.37
2019-02-08T23:48:24.305Z,3.39
2019-02-08T23:50:56.673Z,3.42
2019-02-08T23:53:28.963Z,3.40
2019-02-08T23:56:01.368Z,3.37
2019-02-08T23:58:33.704Z,3.37
